Time;durP1;ratioP1;P1;durP2;ratioP2;P2;SDS_P1;SDS_P2;PMS_P1;PMS_P2;Temp;Humidity;BMP_temperature;BMP_pressure;BME280_temperature;BME280_humidity;BME280_pressure;Samples;Min_cycle;Max_cycle;Signal;HPM_P1;HPM_P2
2024/04/15 00:01:13;;;;;;;6.82;2.60;;;;;;;15.54;47.35;100023.28;5229107;27;94712;-74
2024/04/15 00:03:39;;;;;;;5.45;2.10;;;;;;;15.80;47.49;100052.69;5170937;27;94776;-74
2024/04/15 00:06:06;;;;;;;10.27;2.53;;;;;;;15.69;47.38;100040.09;5229902;27;94103;-74
2024/04/15 00:08:31;;;;;;;6.10;2.50;;;;;;;15.54;47.56;100007.44;5209191;27;96463;-74
2024/04/15 00:11:01;;;;;;;4.80;2.25;;;;;;;15.69;47.59;100034.78;5223757;27;94810;-74
2024/04/15 00:13:26;;;;;;;6.07;2.00;;;;;;;15.40;47.90;100000.31;5229793;26;95298;-74
2024/04/15 00:15:56;;;;;;;6.50;2.15;;;;;;;15.68;48.26;100029.56;5224891;26;94785;-75
2024/04/15 00:18:21;;;;;;;9.50;2.25;;;;;;;15.67;48.05;100028.69;5204194;27;95109;-74
2024/04/15 00:20:47;;;;;;;10.88;2.40;;;;;;;15.63;48.01;100009.53;5229229;26;94709;-74
2024/04/15 00:23:12;;;;;;;7.05;2.00;;;;;;;15.47;48.01;99974.31;5227900;27;94683;-74
2024/04/15 00:25:38;;;;;;;6.53;2.63;;;;;;;15.72;47.90;100007.31;5220979;27;98097;-74
2024/04/15 00:28:04;;;;;;;8.93;2.88;;;;;;;15.72;47.62;100005.50;5204218;27;94635;-74
2024/04/15 00:30:29;;;;;;;7.85;2.55;;;;;;;15.66;47.80;100005.84;5198854;27;94557;-74
2024/04/15 00:32:55;;;;;;;7.95;2.50;;;;;;;15.65;47.92;99996.22;5224640;27;94639;-74
2024/04/15 00:35:21;;;;;;;4.90;2.28;;;;;;;15.30;47.90;99937.47;5231514;26;95019;-74
2024/04/15 00:37:47;;;;;;;4.43;2.28;;;;;;;15.37;48.20;99947.59;5202261;27;98262;-74
2024/04/15 00:40:12;;;;;;;5.95;2.38;;;;;;;15.22;47.82;99918.59;5231429;27;94701;-74
2024/04/15 00:42:38;;;;;;;5.15;2.40;;;;;;;15.43;47.88;99948.19;5204842;27;94636;-74
2024/04/15 00:45:27;;;;;;;7.03;2.22;;;;;;;15.32;48.48;99939.06;5175359;27;96409;-74
2024/04/15 00:47:53;;;;;;;8.15;2.42;;;;;;;15.06;48.46;99903.59;5200456;27;98097;-74
2024/04/15 00:50:18;;;;;;;5.47;2.55;;;;;;;15.14;48.12;99911.09;5201803;27;94657;-74
2024/04/15 00:52:44;;;;;;;7.80;2.10;;;;;;;15.22;48.41;99929.16;5232012;27;93784;-74
2024/04/15 00:55:09;;;;;;;6.35;2.22;;;;;;;15.28;48.67;99942.84;5199015;27;97270;-74
2024/04/15 00:57:35;;;;;;;4.13;2.58;;;;;;;15.18;49.05;99933.75;5204509;27;94712;-74
2024/04/15 01:00:00;;;;;;;6.30;2.30;;;;;;;15.12;49.18;99950.81;5227418;27;94775;-74
2024/04/15 01:02:26;;;;;;;6.40;2.22;;;;;;;15.09;49.12;99950.16;5228343;27;94738;-74
2024/04/15 01:04:52;;;;;;;9.48;3.15;;;;;;;14.90;49.65;99926.59;5202629;27;97261;-75
2024/04/15 01:07:18;;;;;;;6.70;3.05;;;;;;;14.85;48.76;99902.25;5204017;27;97846;-74
2024/04/15 01:09:44;;;;;;;7.05;2.65;;;;;;;14.82;49.01;99926.19;5194627;27;96165;-74
2024/04/15 01:12:10;;;;;;;6.30;2.40;;;;;;;14.51;49.05;99888.28;5228140;27;94710;-74
2024/04/15 01:14:35;;;;;;;8.35;2.15;;;;;;;14.69;49.31;99912.84;5198068;27;94803;-74
2024/04/15 01:17:01;;;;;;;10.73;2.45;;;;;;;14.69;49.19;99908.41;5203744;27;94706;-74
2024/04/15 01:19:26;;;;;;;8.15;2.30;;;;;;;14.90;49.20;99913.41;5229465;27;94709;-74
2024/04/15 01:21:52;;;;;;;7.18;2.20;;;;;;;14.95;48.98;99903.38;5228557;27;94629;-74
2024/04/15 01:24:17;;;;;;;5.35;2.03;;;;;;;14.92;48.79;99903.56;5233103;27;94685;-74
2024/04/15 01:26:47;;;;;;;7.00;1.75;;;;;;;14.97;48.21;99890.09;5204298;27;97722;-74
2024/04/15 01:29:12;;;;;;;6.47;2.15;;;;;;;14.99;48.90;99904.94;5205277;26;94625;-74
2024/04/15 01:31:38;;;;;;;7.35;1.98;;;;;;;15.04;48.55;99896.72;5183270;26;93623;-74
2024/04/15 01:34:03;;;;;;;7.60;2.83;;;;;;;14.84;48.16;99867.03;5181275;26;97314;-74
2024/04/15 01:36:29;;;;;;;4.78;2.00;;;;;;;14.96;47.96;99899.81;5194096;27;98581;-74
2024/04/15 01:38:54;;;;;;;6.18;2.22;;;;;;;14.88;48.19;99878.28;5208260;27;94573;-74
2024/04/15 01:41:20;;;;;;;4.53;2.05;;;;;;;14.97;48.67;99890.09;5230011;26;94754;-74
2024/04/15 01:43:45;;;;;;;5.65;2.10;;;;;;;14.87;48.63;99881.88;5236071;27;94425;-74
2024/04/15 01:46:11;;;;;;;12.48;2.95;;;;;;;15.08;48.50;99903.53;5193755;27;94755;-74
2024/04/15 01:48:36;;;;;;;6.95;2.35;;;;;;;15.11;48.60;99890.97;5207246;27;94577;-74
2024/04/15 01:51:02;;;;;;;5.60;1.98;;;;;;;15.12;48.40;99887.38;5231468;27;94645;-75
2024/04/15 01:53:27;;;;;;;5.05;2.97;;;;;;;14.99;48.87;99856.50;5206207;27;97196;-74
2024/04/15 01:55:53;;;;;;;5.00;2.88;;;;;;;15.17;48.49;99884.47;5236551;27;94931;-74
2024/04/15 01:58:18;;;;;;;6.38;1.92;;;;;;;15.13;48.73;99869.75;5218148;26;94717;-74
2024/04/15 02:00:44;;;;;;;6.55;1.90;;;;;;;15.12;48.98;99868.88;5186325;27;94579;-74
2024/04/15 02:03:09;;;;;;;5.63;1.80;;;;;;;14.91;48.84;99830.53;5234812;26;94664;-74
2024/04/15 02:05:35;;;;;;;10.05;1.67;;;;;;;15.20;48.69;99875.50;5233555;26;94638;-74
2024/04/15 02:08:01;;;;;;;8.57;2.00;;;;;;;15.25;48.77;99882.22;5224402;27;94738;-74
2024/04/15 02:10:27;;;;;;;5.00;2.10;;;;;;;15.13;48.17;99852.09;5233148;27;95491;-74
2024/04/15 02:12:52;;;;;;;7.45;2.45;;;;;;;15.12;48.31;99833.66;5206878;27;97132;-74
2024/04/15 02:15:18;;;;;;;5.03;1.85;;;;;;;15.18;48.20;99846.50;5159572;27;97433;-74
2024/04/15 02:17:44;;;;;;;2.63;1.58;;;;;;;15.31;48.02;99867.78;5234319;26;94630;-73
2024/04/15 02:20:09;;;;;;;8.63;2.17;;;;;;;15.27;47.79;99866.25;5234453;27;94677;-74
2024/04/15 02:22:35;;;;;;;6.72;2.03;;;;;;;15.19;47.86;99842.94;5233073;27;94649;-75
2024/04/15 02:25:00;;;;;;;7.32;1.85;;;;;;;14.96;47.83;99786.19;5228563;26;94755;-73
2024/04/15 02:27:26;;;;;;;5.75;2.28;;;;;;;15.21;47.19;99834.91;5231752;27;94724;-74
2024/04/15 02:29:52;;;;;;;8.73;2.17;;;;;;;15.18;47.35;99825.34;5202526;27;97371;-74
2024/04/15 02:32:18;;;;;;;5.43;2.10;;;;;;;15.16;47.24;99825.47;5233148;26;94542;-74
2024/04/15 02:34:44;;;;;;;3.03;1.95;;;;;;;15.15;47.35;99807.91;5229304;26;94719;-74
2024/04/15 02:37:10;;;;;;;4.80;2.15;;;;;;;15.24;47.58;99818.84;5229462;26;94700;-74
2024/04/15 02:39:35;;;;;;;5.03;2.00;;;;;;;15.09;47.92;99805.63;5228426;26;94806;-74
2024/04/15 02:42:01;;;;;;;6.35;2.10;;;;;;;15.20;47.79;99822.63;5234770;26;94673;-74
2024/04/15 02:44:26;;;;;;;5.55;1.90;;;;;;;15.03;47.54;99789.28;5204869;27;95278;-76
2024/04/15 02:46:52;;;;;;;5.60;2.00;;;;;;;15.11;47.70;99803.75;5166610;27;95421;-74
2024/04/15 02:49:18;;;;;;;7.45;2.13;;;;;;;14.87;47.55;99755.88;5233066;26;94555;-74
2024/04/15 02:51:43;;;;;;;10.60;2.35;;;;;;;15.01;47.86;99776.19;5233759;26;94477;-74
2024/04/15 02:54:09;;;;;;;5.72;2.10;;;;;;;14.90;48.43;99778.63;5234566;27;94901;-74
2024/04/15 02:56:36;;;;;;;7.55;2.13;;;;;;;14.65;48.61;99735.19;5233445;26;94750;-74
2024/04/15 02:59:01;;;;;;;9.30;2.45;;;;;;;14.92;48.36;99766.16;5233323;27;93868;-75
2024/04/15 03:01:27;;;;;;;5.18;2.08;;;;;;;15.05;48.29;99784.78;5205505;27;94748;-75
2024/04/15 03:03:52;;;;;;;13.13;2.47;;;;;;;14.94;48.50;99765.13;5232490;27;94615;-78
2024/04/15 03:06:19;;;;;;;7.45;2.67;;;;;;;14.90;48.57;99754.84;5232990;27;94693;-74
2024/04/15 03:08:46;;;;;;;9.35;2.30;;;;;;;15.02;48.98;99764.66;5233273;26;94645;-74
2024/04/15 03:11:11;;;;;;;7.95;2.60;;;;;;;15.01;48.95;99757.69;5233374;27;94655;-74
2024/04/15 03:13:37;;;;;;;10.10;3.03;;;;;;;15.04;48.50;99739.00;5234606;27;94769;-74
2024/04/15 03:16:03;;;;;;;5.93;3.42;;;;;;;14.98;48.44;99738.50;5197704;27;94728;-74
2024/04/15 03:18:28;;;;;;;5.88;2.50;;;;;;;14.91;48.76;99744.16;5232911;27;94756;-74
2024/04/15 03:20:54;;;;;;;3.95;2.25;;;;;;;14.90;49.16;99753.03;5202532;27;93930;-76
2024/04/15 03:23:20;;;;;;;8.90;2.45;;;;;;;14.74;50.35;99723.19;5195640;27;98424;-74
2024/04/15 03:25:46;;;;;;;5.43;2.20;;;;;;;14.85;51.60;99748.97;5219370;27;94683;-74
2024/04/15 03:28:11;;;;;;;8.93;2.50;;;;;;;14.75;52.26;99737.25;5205091;27;94633;-74
2024/04/15 03:30:37;;;;;;;8.50;2.88;;;;;;;14.63;53.51;99723.88;5232533;26;94916;-76
2024/04/15 03:33:02;;;;;;;8.30;2.90;;;;;;;14.59;54.40;99727.63;5233149;26;97357;-77
2024/04/15 03:35:28;;;;;;;6.05;2.08;;;;;;;14.75;54.28;99763.66;5232450;26;94748;-75
2024/04/15 03:37:53;;;;;;;6.68;2.30;;;;;;;14.42;54.70;99709.25;5235421;27;94619;-75
2024/04/15 03:40:19;;;;;;;5.75;2.55;;;;;;;14.54;55.17;99747.31;5232350;26;97891;-75
2024/04/15 03:42:46;;;;;;;9.32;3.20;;;;;;;14.40;55.52;99727.84;5235130;26;94828;-75
2024/04/15 03:45:11;;;;;;;4.38;2.75;;;;;;;14.50;55.97;99757.19;5172833;27;94653;-75
2024/04/15 03:47:37;;;;;;;8.60;4.40;;;;;;;14.56;56.27;99769.22;5234309;27;94729;-75
2024/04/15 03:50:02;;;;;;;8.38;3.47;;;;;;;14.49;56.86;99760.78;5215538;27;97870;-76
2024/04/15 03:52:29;;;;;;;8.00;3.20;;;;;;;14.26;56.95;99720.75;5224374;26;95800;-76
2024/04/15 03:54:55;;;;;;;8.68;2.63;;;;;;;14.25;56.58;99716.41;5231815;27;94664;-75
2024/04/15 03:57:20;;;;;;;7.32;2.92;;;;;;;14.21;57.10;99699.03;5205090;27;94631;-75
2024/04/15 03:59:46;;;;;;;8.38;2.92;;;;;;;14.20;57.32;99707.06;5204028;27;97868;-75
2024/04/15 04:02:11;;;;;;;11.70;3.95;;;;;;;14.35;57.45;99745.75;5230267;26;95809;-75
2024/04/15 04:04:36;;;;;;;8.90;2.80;;;;;;;14.36;57.71;99743.94;5232449;27;95137;-76
2024/04/15 04:07:02;;;;;;;7.60;3.95;;;;;;;14.34;57.83;99737.91;5205017;27;94792;-75
2024/04/15 04:09:27;;;;;;;10.95;3.30;;;;;;;14.20;57.96;99736.94;5204224;27;94661;-76
2024/04/15 04:11:54;;;;;;;9.48;2.45;;;;;;;14.18;57.50;99715.06;5230395;27;94695;-76
2024/04/15 04:14:19;;;;;;;7.35;2.70;;;;;;;14.13;57.61;99732.09;5233764;26;94833;-75
2024/04/15 04:16:45;;;;;;;4.65;2.60;;;;;;;14.15;58.36;99746.91;5232296;26;94682;-77
2024/04/15 04:19:11;;;;;;;4.25;2.25;;;;;;;13.96;58.15;99718.09;5201367;27;94708;-76
2024/04/15 04:21:37;;;;;;;8.30;3.17;;;;;;;14.22;58.97;99777.31;5177252;27;98359;-74
2024/04/15 04:24:02;;;;;;;6.82;2.92;;;;;;;14.23;59.40;99815.94;5200697;26;95064;-75
2024/04/15 04:26:28;;;;;;;7.53;2.50;;;;;;;14.18;59.29;99833.84;5202400;27;94641;-75
2024/04/15 04:28:54;;;;;;;5.55;3.13;;;;;;;14.31;59.26;99854.25;5229612;27;97990;-76
2024/04/15 04:31:19;;;;;;;9.63;4.85;;;;;;;14.11;58.85;99840.41;5197439;27;94872;-75
2024/04/15 04:33:45;;;;;;;6.15;3.00;;;;;;;14.30;58.37;99861.31;5227193;26;94738;-75
2024/04/15 04:36:16;;;;;;;8.65;3.20;;;;;;;14.34;58.22;99878.72;5200119;27;94788;-75
2024/04/15 04:38:41;;;;;;;5.57;3.88;;;;;;;14.14;58.78;99847.31;5228094;27;97798;-75
2024/04/15 04:41:07;;;;;;;8.57;4.13;;;;;;;14.11;58.44;99816.66;5221147;27;98551;-75
2024/04/15 04:43:33;;;;;;;7.88;3.83;;;;;;;14.18;60.05;99867.28;5227729;27;95296;-78
2024/04/15 04:46:07;;;;;;;8.00;3.80;;;;;;;14.18;59.76;99854.94;5199780;27;94661;-77
2024/04/15 04:48:32;;;;;;;6.43;3.25;;;;;;;14.10;59.13;99820.22;5200554;27;98496;-77
2024/04/15 04:51:07;;;;;;;6.82;3.42;;;;;;;14.14;59.30;99834.09;5227189;27;94955;-79
2024/04/15 04:53:32;;;;;;;5.85;3.63;;;;;;;13.86;59.77;99790.78;5203974;27;94604;-77
2024/04/15 04:56:14;;;;;;;10.98;3.55;;;;;;;14.13;59.89;99859.63;5199071;27;94646;-79
2024/04/15 04:58:41;;;;;;;7.20;3.50;;;;;;;13.98;59.85;99818.25;5177755;27;97983;-75
2024/04/15 05:01:17;;;;;;;6.93;2.92;;;;;;;13.99;60.11;99870.09;5202635;27;97996;-75
2024/04/15 05:03:47;;;;;;;7.97;3.45;;;;;;;13.98;60.18;99863.13;5200863;27;94993;-74
2024/04/15 05:06:14;;;;;;;7.72;3.40;;;;;;;13.76;59.88;99835.28;5199144;27;94568;-73
2024/04/15 05:08:40;;;;;;;6.95;3.13;;;;;;;13.99;59.46;99892.09;5160614;27;97704;-71
2024/04/15 05:11:06;;;;;;;6.60;3.15;;;;;;;13.99;59.26;99864.81;5202830;27;94725;-74
2024/04/15 05:13:32;;;;;;;10.07;2.72;;;;;;;14.11;58.93;99872.06;5202017;27;94645;-74
2024/04/15 05:16:05;;;;;;;7.80;2.70;;;;;;;14.14;58.96;99868.41;5231591;27;94781;-74
2024/04/15 05:18:31;;;;;;;9.30;3.25;;;;;;;13.95;59.83;99855.38;5202254;27;94684;-74
2024/04/15 05:20:57;;;;;;;6.85;2.92;;;;;;;14.02;59.43;99878.72;5183359;27;95178;-76
2024/04/15 05:23:22;;;;;;;11.80;3.67;;;;;;;14.15;59.34;99870.97;5171170;27;94500;-74
2024/04/15 05:25:48;;;;;;;9.82;4.05;;;;;;;14.12;58.88;99857.94;5224426;27;94685;-74
2024/04/15 05:28:13;;;;;;;7.20;3.00;;;;;;;14.19;58.86;99851.34;5170984;27;97502;-74
2024/04/15 05:30:39;;;;;;;5.30;2.53;;;;;;;13.99;59.77;99863.06;5231891;27;97066;-74
2024/04/15 05:33:04;;;;;;;8.98;3.20;;;;;;;13.78;59.68;99822.00;5198763;27;94614;-76
2024/04/15 05:35:30;;;;;;;10.23;3.00;;;;;;;13.97;59.07;99862.28;5231775;27;94768;-74
2024/04/15 05:37:55;;;;;;;8.00;3.10;;;;;;;14.09;58.76;99851.97;5233610;27;94696;-74
2024/04/15 05:40:21;;;;;;;9.82;3.28;;;;;;;13.96;59.08;99810.44;5231540;27;94694;-76
2024/04/15 05:42:46;;;;;;;7.95;2.70;;;;;;;14.19;59.63;99843.44;5233972;27;94671;-74
2024/04/15 05:45:12;;;;;;;10.20;3.08;;;;;;;14.21;59.20;99831.00;5230298;27;94794;-74
2024/04/15 05:47:37;;;;;;;10.02;2.70;;;;;;;13.84;58.75;99791.81;5203447;27;97982;-76
2024/04/15 05:50:03;;;;;;;7.25;2.75;;;;;;;13.99;57.98;99772.47;5231531;27;94649;-74
2024/04/15 05:52:29;;;;;;;7.70;2.85;;;;;;;14.16;57.37;99785.53;5203499;27;94653;-78
2024/04/15 05:54:54;;;;;;;6.40;2.95;;;;;;;14.11;57.62;99786.75;5230109;27;94655;-74
2024/04/15 05:57:20;;;;;;;6.38;3.13;;;;;;;14.30;58.13;99821.72;5231035;27;94087;-74
2024/04/15 05:59:47;;;;;;;6.68;2.75;;;;;;;14.24;58.38;99830.84;5228931;27;96803;-73
2024/04/15 06:02:13;;;;;;;6.05;3.13;;;;;;;14.09;59.53;99815.03;5211936;27;94743;-74
2024/04/15 06:04:38;;;;;;;6.68;3.50;;;;;;;13.94;59.52;99811.47;5216275;27;94687;-75
2024/04/15 06:07:04;;;;;;;7.40;3.33;;;;;;;13.89;59.35;99801.16;5195187;27;98507;-76
2024/04/15 06:09:30;;;;;;;7.22;3.20;;;;;;;13.86;59.42;99803.13;5213527;27;94744;-74
2024/04/15 06:11:56;;;;;;;7.78;3.15;;;;;;;13.82;59.72;99794.53;5202861;27;94633;-75
2024/04/15 06:14:21;;;;;;;4.82;2.70;;;;;;;13.84;59.64;99821.66;5232653;26;94707;-73
2024/04/15 06:16:48;;;;;;;9.43;2.90;;;;;;;13.89;59.33;99821.41;5193765;27;94754;-75
2024/04/15 06:19:13;;;;;;;5.55;2.83;;;;;;;13.94;59.25;99837.84;5193298;27;98818;-72
2024/04/15 06:21:39;;;;;;;4.47;2.80;;;;;;;13.82;59.10;99871.88;5233284;26;94681;-76
2024/04/15 06:24:04;;;;;;;9.57;3.20;;;;;;;13.81;59.44;99791.03;5234384;26;94521;-75
2024/04/15 06:26:30;;;;;;;9.07;3.30;;;;;;;13.88;58.52;99814.47;5198513;27;98794;-75
2024/04/15 06:28:55;;;;;;;15.45;4.05;;;;;;;13.85;58.23;99781.19;5217800;27;94546;-73
2024/04/15 06:31:21;;;;;;;12.23;3.13;;;;;;;14.03;58.62;99769.56;5214711;27;94687;-73
2024/04/15 06:33:46;;;;;;;10.00;3.28;;;;;;;14.25;58.19;99829.03;5218195;27;94572;-73
2024/04/15 06:36:11;;;;;;;7.30;3.30;;;;;;;14.14;58.30;99766.34;5230306;26;94644;-72
2024/04/15 06:38:37;;;;;;;5.85;2.53;;;;;;;14.18;56.12;99827.69;5201143;27;95904;-73
2024/04/15 06:41:03;;;;;;;7.38;2.78;;;;;;;14.19;54.86;99793.28;5228651;26;94687;-73
2024/04/15 06:43:30;;;;;;;8.60;2.38;;;;;;;14.00;54.61;99814.59;5230740;27;94771;-74
2024/04/15 06:45:56;;;;;;;11.07;2.40;;;;;;;13.94;53.53;99814.13;5232893;26;94922;-73
2024/04/15 06:48:21;;;;;;;5.47;2.20;;;;;;;13.82;52.61;99811.22;5230466;27;95371;-74
2024/04/15 06:50:47;;;;;;;9.25;2.30;;;;;;;13.56;52.71;99769.59;5228435;26;94876;-73
2024/04/15 06:53:12;;;;;;;9.00;1.95;;;;;;;13.64;51.78;99814.00;5234582;26;94718;-73
2024/04/15 06:55:38;;;;;;;4.63;2.08;;;;;;;13.51;52.02;99796.22;5232372;26;96466;-73
2024/04/15 06:58:03;;;;;;;7.47;2.33;;;;;;;13.30;51.75;99749.94;5233198;26;95294;-75
2024/04/15 07:00:29;;;;;;;8.52;2.38;;;;;;;13.68;51.38;99823.47;5232893;26;94808;-77
2024/04/15 07:02:54;;;;;;;9.60;3.55;;;;;;;13.57;51.60;99813.50;5236204;26;93611;-75
2024/04/15 07:05:20;;;;;;;6.88;3.08;;;;;;;13.30;51.88;99786.84;5234254;26;94758;-75
2024/04/15 07:07:46;;;;;;;8.25;2.90;;;;;;;13.32;52.31;99830.63;5235577;27;94674;-72
2024/04/15 07:10:11;;;;;;;7.72;2.63;;;;;;;13.22;52.31;99797.75;5227250;26;95333;-73
2024/04/15 07:12:37;;;;;;;7.70;2.22;;;;;;;13.21;51.93;99803.97;5232683;27;93925;-72
2024/04/15 07:15:02;;;;;;;7.70;2.70;;;;;;;13.38;52.75;99829.47;5230249;27;94569;-72
2024/04/15 07:17:28;;;;;;;6.18;2.20;;;;;;;13.12;53.21;99789.50;5233325;26;94752;-72
2024/04/15 07:19:53;;;;;;;5.63;2.15;;;;;;;12.91;52.74;99798.50;5203565;27;94585;-71
2024/04/15 07:22:20;;;;;;;10.05;2.38;;;;;;;12.86;51.53;99782.94;5234814;26;94507;-72
2024/04/15 07:24:45;;;;;;;7.63;2.45;;;;;;;12.77;52.13;99759.72;5234091;26;94062;-72
2024/04/15 07:27:10;;;;;;;8.80;2.88;;;;;;;13.14;51.40;99789.38;5235595;26;95147;-71
2024/04/15 07:29:36;;;;;;;4.57;2.22;;;;;;;12.48;51.80;99723.50;5221694;26;94654;-72
2024/04/15 07:32:05;;;;;;;7.45;2.50;;;;;;;12.80;51.91;99763.97;5231480;26;94661;-71
2024/04/15 07:34:30;;;;;;;8.88;2.97;;;;;;;12.70;51.55;99758.31;5227652;26;94646;-71
2024/04/15 07:36:56;;;;;;;6.93;2.40;;;;;;;12.44;52.34;99772.81;5228097;27;94684;-71
2024/04/15 07:39:21;;;;;;;9.43;2.90;;;;;;;12.79;52.60;99802.63;5233844;26;94560;-71
2024/04/15 07:41:47;;;;;;;8.30;2.50;;;;;;;12.87;52.15;99804.88;5229938;26;94652;-71
2024/04/15 07:44:12;;;;;;;6.72;2.47;;;;;;;12.32;53.18;99752.38;5224523;27;94700;-71
2024/04/15 07:46:38;;;;;;;12.95;3.85;;;;;;;12.37;53.11;99761.75;5225776;26;95018;-72
2024/04/15 07:49:03;;;;;;;5.13;2.50;;;;;;;12.51;52.67;99766.34;5227786;27;94608;-71
2024/04/15 07:51:29;;;;;;;7.88;2.83;;;;;;;12.49;52.73;99756.81;5231569;27;94849;-72
2024/04/15 07:53:54;;;;;;;7.35;2.67;;;;;;;12.59;52.48;99739.59;5231669;27;94622;-73
2024/04/15 07:56:20;;;;;;;9.82;2.42;;;;;;;12.71;53.05;99751.28;5233712;27;96227;-74
2024/04/15 07:58:45;;;;;;;8.85;2.10;;;;;;;13.04;52.60;99772.38;5198852;27;94755;-73
2024/04/15 08:01:11;;;;;;;8.63;2.90;;;;;;;13.31;52.04;99770.94;5232804;27;94589;-73
2024/04/15 08:03:37;;;;;;;11.10;2.97;;;;;;;13.20;52.59;99740.78;5229497;27;94627;-76
2024/04/15 08:06:02;;;;;;;7.13;2.55;;;;;;;13.18;52.13;99754.06;5221484;26;97680;-73
2024/04/15 08:08:28;;;;;;;13.60;2.70;;;;;;;13.40;52.13;99781.91;5223115;26;94720;-75
2024/04/15 08:10:54;;;;;;;10.43;2.42;;;;;;;12.98;52.36;99754.28;5229787;26;94735;-73
2024/04/15 08:13:19;;;;;;;8.35;2.33;;;;;;;13.16;52.96;99757.69;5231048;26;94723;-74
2024/04/15 08:15:48;;;;;;;4.82;2.55;;;;;;;13.13;52.75;99751.66;5226740;26;94762;-74
2024/04/15 08:18:13;;;;;;;7.45;2.30;;;;;;;13.47;52.40;99776.22;5225268;26;94717;-73
2024/04/15 08:20:38;;;;;;;8.85;3.08;;;;;;;13.32;52.13;99735.75;5230024;26;94677;-73
2024/04/15 08:23:04;;;;;;;8.23;2.05;;;;;;;13.52;52.26;99799.69;5230491;26;94639;-73
2024/04/15 08:25:29;;;;;;;11.65;3.20;;;;;;;13.34;53.09;99772.56;5202074;27;94741;-76
2024/04/15 08:27:56;;;;;;;6.18;2.65;;;;;;;13.35;52.70;99774.25;5231038;27;94723;-76
2024/04/15 08:30:24;;;;;;;6.53;2.40;;;;;;;13.28;53.29;99768.47;5231606;26;94586;-73
2024/04/15 08:32:51;;;;;;;10.15;2.00;;;;;;;13.33;53.27;99766.44;5220305;26;94636;-73
2024/04/15 08:35:17;;;;;;;7.75;2.80;;;;;;;13.46;52.88;99774.50;5228635;27;94775;-72
2024/04/15 08:37:42;;;;;;;10.20;3.72;;;;;;;13.20;53.68;99735.50;5231393;26;94720;-78
2024/04/15 08:40:10;;;;;;;7.85;2.40;;;;;;;13.08;53.12;99729.13;5230787;27;94717;-78
2024/04/15 08:42:47;;;;;;;8.75;2.75;;;;;;;13.22;52.68;99742.41;5231665;27;94739;-79
2024/04/15 08:45:17;;;;;;;6.35;2.05;;;;;;;13.35;51.50;99737.34;5221506;26;100846;-80
2024/04/15 08:47:48;;;;;;;7.43;2.45;;;;;;;13.19;51.44;99726.75;5222917;27;95013;-78
2024/04/15 08:50:14;;;;;;;5.07;1.95;;;;;;;13.27;51.77;99772.03;5230143;26;96711;-79
2024/04/15 08:52:41;;;;;;;6.55;2.30;;;;;;;13.35;51.80;99763.69;5227415;26;95523;-78
2024/04/15 08:55:08;;;;;;;8.60;2.65;;;;;;;13.23;51.73;99766.97;5230045;27;94726;-78
2024/04/15 08:57:34;;;;;;;8.45;3.15;;;;;;;12.95;51.99;99718.41;5196631;27;94658;-79
2024/04/15 09:00:00;;;;;;;6.15;2.17;;;;;;;13.25;51.94;99757.19;5224965;26;94856;-83
2024/04/15 09:02:28;;;;;;;5.40;1.75;;;;;;;13.27;51.27;99750.94;5220068;26;94608;-80
2024/04/15 09:04:55;;;;;;;7.38;2.20;;;;;;;13.26;51.47;99751.03;5199555;27;95267;-80
2024/04/15 09:07:20;;;;;;;5.82;2.10;;;;;;;13.33;51.75;99776.97;5225228;27;94619;-80
2024/04/15 09:09:46;;;;;;;6.35;1.90;;;;;;;13.02;51.04;99714.50;5229489;26;94735;-80
2024/04/15 09:12:11;;;;;;;6.40;2.10;;;;;;;13.18;51.30;99769.00;5225441;27;94675;-79
2024/04/15 09:14:37;;;;;;;6.70;2.25;;;;;;;12.95;52.46;99762.34;5225511;26;95154;-80
2024/04/15 09:17:02;;;;;;;7.40;2.22;;;;;;;12.58;53.54;99762.44;5228491;27;94657;-80
2024/04/15 09:19:29;;;;;;;5.15;2.50;;;;;;;12.43;54.22;99764.06;5196102;27;93588;-80
2024/04/15 09:22:01;;;;;;;8.45;3.30;;;;;;;12.67;53.06;99721.63;5196671;27;98131;-80
2024/04/15 09:24:27;;;;;;;7.25;3.13;;;;;;;12.94;53.17;99732.47;5226742;27;94831;-80
2024/04/15 09:26:52;;;;;;;6.10;2.40;;;;;;;13.26;52.63;99754.50;5226548;26;94721;-79
2024/04/15 09:29:18;;;;;;;5.72;2.15;;;;;;;13.42;52.99;99748.41;5229854;26;94622;-81
2024/04/15 09:31:43;;;;;;;5.40;2.00;;;;;;;13.55;51.83;99778.44;5230660;26;94165;-78
2024/04/15 09:34:09;;;;;;;8.93;2.75;;;;;;;13.25;51.42;99705.38;5222506;26;95283;-77
2024/04/15 09:36:41;;;;;;;10.43;2.50;;;;;;;13.50;51.90;99725.97;5219842;26;94796;-78
2024/04/15 09:39:07;;;;;;;7.68;2.75;;;;;;;13.49;51.64;99703.16;5221590;27;93902;-77
2024/04/15 09:41:34;;;;;;;4.90;2.40;;;;;;;13.53;51.19;99711.78;5221852;27;95754;-77
2024/04/15 09:44:00;;;;;;;5.68;2.10;;;;;;;13.64;51.09;99711.16;5224810;26;96594;-77
2024/04/15 09:46:29;;;;;;;4.60;2.10;;;;;;;13.97;50.09;99697.84;5223590;26;94711;-77
2024/04/15 09:48:55;;;;;;;4.55;2.35;;;;;;;13.99;50.34;99712.66;5228520;26;94659;-76
2024/04/15 09:51:22;;;;;;;4.28;1.85;;;;;;;12.95;51.37;99709.66;5228559;26;94631;-78
2024/04/15 09:53:51;;;;;;;7.95;1.98;;;;;;;13.48;51.22;99708.53;5199495;27;94687;-77
2024/04/15 09:56:28;;;;;;;6.28;2.33;;;;;;;13.31;51.69;99705.03;5231973;27;94642;-75
2024/04/15 09:58:55;;;;;;;5.80;2.10;;;;;;;13.22;52.22;99707.28;5227810;27;94602;-73
2024/04/15 10:01:31;;;;;;;5.03;1.90;;;;;;;13.97;51.39;99721.59;5198180;26;96798;-74
2024/04/15 10:03:58;;;;;;;10.70;2.47;;;;;;;14.49;50.15;99723.81;5227676;26;94752;-77
2024/04/15 10:06:31;;;;;;;6.53;2.20;;;;;;;14.33;49.43;99723.00;5223263;26;94868;-76
2024/04/15 10:08:58;;;;;;;6.72;2.03;;;;;;;14.41;49.34;99697.84;5228919;27;94713;-76
2024/04/15 10:11:26;;;;;;;13.98;4.22;;;;;;;13.79;51.02;99694.47;5233573;26;94647;-76
2024/04/15 10:13:51;;;;;;;5.90;2.60;;;;;;;13.77;50.83;99712.16;5229948;27;94740;-76
2024/04/15 10:16:20;;;;;;;7.93;2.47;;;;;;;13.96;51.04;99698.75;5230803;26;94800;-77
2024/04/15 10:18:53;;;;;;;5.47;2.40;;;;;;;13.78;51.18;99661.94;5233487;26;94495;-77
2024/04/15 10:21:19;;;;;;;7.88;2.33;;;;;;;13.98;50.76;99671.34;5229986;26;94634;-77
2024/04/15 10:23:44;;;;;;;6.47;2.15;;;;;;;13.97;50.71;99659.09;5226635;26;94684;-76
2024/04/15 10:26:10;;;;;;;6.43;2.13;;;;;;;13.77;50.45;99673.44;5233999;26;94795;-76
2024/04/15 10:28:36;;;;;;;5.10;2.47;;;;;;;13.49;50.90;99655.69;5229119;26;95658;-77
2024/04/15 10:31:02;;;;;;;5.20;1.88;;;;;;;12.92;52.37;99650.06;5227597;26;94687;-77
2024/04/15 10:33:27;;;;;;;7.80;3.05;;;;;;;12.62;52.84;99635.00;5217868;27;94607;-77
2024/04/15 10:35:53;;;;;;;7.88;2.90;;;;;;;12.61;52.58;99640.31;5226384;26;94838;-76
2024/04/15 10:38:19;;;;;;;8.13;3.25;;;;;;;12.66;52.12;99643.56;5234530;26;94573;-77
2024/04/15 10:40:49;;;;;;;11.35;3.85;;;;;;;13.48;51.23;99635.56;5234025;26;94594;-75
2024/04/15 10:43:17;;;;;;;7.57;3.65;;;;;;;13.45;50.78;99604.09;5220134;26;94612;-72
2024/04/15 10:45:43;;;;;;;8.15;3.55;;;;;;;13.70;51.05;99632.56;5232738;26;94591;-71
2024/04/15 10:48:11;;;;;;;7.93;3.88;;;;;;;13.37;51.17;99630.03;5233687;27;94698;-76
2024/04/15 10:50:37;;;;;;;10.23;3.70;;;;;;;13.41;50.96;99596.44;5233645;26;94426;-76
2024/04/15 10:53:03;;;;;;;7.28;3.58;;;;;;;13.39;51.06;99614.16;5235370;26;94626;-76
2024/04/15 10:55:29;;;;;;;6.10;2.53;;;;;;;13.18;51.76;99581.88;5236175;26;94647;-76
2024/04/15 10:57:55;;;;;;;6.13;2.33;;;;;;;13.81;50.76;99602.88;5206848;27;94576;-76
2024/04/15 11:00:22;;;;;;;7.38;1.98;;;;;;;13.32;51.02;99577.59;5204786;27;94711;-76
2024/04/15 11:02:50;;;;;;;9.07;2.58;;;;;;;13.84;50.89;99613.25;5199287;27;94636;-76
2024/04/15 11:05:20;;;;;;;7.07;2.43;;;;;;;14.00;50.33;99598.22;5234279;26;94527;-76
2024/04/15 11:07:47;;;;;;;6.57;2.53;;;;;;;12.73;51.60;99594.06;5232848;27;94636;-75
2024/04/15 11:10:13;;;;;;;5.70;2.50;;;;;;;12.40;52.89;99602.84;5224921;26;95138;-73
2024/04/15 11:12:40;;;;;;;5.57;1.80;;;;;;;12.58;52.53;99591.31;5197572;27;97409;-74
2024/04/15 11:15:12;;;;;;;4.00;1.90;;;;;;;12.03;52.30;99588.97;5200442;26;94601;-74
2024/04/15 11:17:58;;;;;;;8.75;2.15;;;;;;;11.81;52.55;99598.81;5199942;26;95033;-74
2024/04/15 11:20:24;;;;;;;4.32;2.08;;;;;;;11.67;53.21;99558.31;5224365;27;97326;-74
2024/04/15 11:22:51;;;;;;;9.02;2.42;;;;;;;11.81;53.88;99612.84;5200471;27;95694;-74
2024/04/15 11:25:18;;;;;;;7.63;2.33;;;;;;;11.82;53.26;99577.72;5231368;26;94589;-74
2024/04/15 11:27:49;;;;;;;11.90;2.08;;;;;;;12.73;52.59;99594.06;5165995;26;94931;-74